createdAt,value
2023-05-03T00:01:39.861Z,1.50
2023-05-03T00:04:08.509Z,1.53
2023-05-03T00:06:36.672Z,1.40
2023-05-03T00:09:04.940Z,1.63
2023-05-03T00:11:33.004Z,1.37
2023-05-03T00:14:02.497Z,1.13
2023-05-03T00:16:30.808Z,1.27
2023-05-03T00:18:59.450Z,1.43
2023-05-03T00:21:28.573Z,1.53
2023-05-03T00:23:56.729Z,1.23
2023-05-03T00:26:24.802Z,1.60
2023-05-03T00:28:52.875Z,1.50
2023-05-03T00:31:22.435Z,1.40
2023-05-03T00:33:50.526Z,1.40
2023-05-03T00:36:18.562Z,1.53
2023-05-03T00:38:46.608Z,1.83
2023-05-03T00:41:14.686Z,1.30
2023-05-03T00:43:42.731Z,1.60
2023-05-03T00:46:17.441Z,1.80
2023-05-03T00:48:49.540Z,1.70
2023-05-03T00:51:18.679Z,1.67
2023-05-03T00:53:46.947Z,1.53
2023-05-03T00:56:19.459Z,1.63
2023-05-03T00:58:47.818Z,1.90
2023-05-03T01:01:16.603Z,2.10
2023-05-03T01:03:48.380Z,1.57
2023-05-03T01:06:27.609Z,1.30
2023-05-03T01:09:02.990Z,1.60
2023-05-03T01:11:38.931Z,1.70
2023-05-03T01:14:16.286Z,2.20
2023-05-03T01:16:50.757Z,1.90
2023-05-03T01:19:30.297Z,1.77
2023-05-03T01:22:18.318Z,1.80
2023-05-03T01:24:52.290Z,1.50
2023-05-03T01:27:21.775Z,1.90
2023-05-03T01:29:49.824Z,1.43
2023-05-03T01:32:26.161Z,1.70
2023-05-03T01:35:02.956Z,1.70
2023-05-03T01:37:31.441Z,1.83
2023-05-03T01:40:03.986Z,1.50
2023-05-03T01:42:35.296Z,1.70
2023-05-03T01:45:05.041Z,1.70
2023-05-03T01:47:33.169Z,1.70
2023-05-03T01:50:01.432Z,1.60
2023-05-03T01:52:30.294Z,2.03
2023-05-03T01:54:59.550Z,1.97
2023-05-03T01:57:27.771Z,1.50
2023-05-03T01:59:57.205Z,1.90
2023-05-03T02:02:26.079Z,2.03
2023-05-03T02:04:54.325Z,2.03
2023-05-03T02:07:22.643Z,1.73
2023-05-03T02:09:51.009Z,1.80
2023-05-03T02:12:19.087Z,2.00
2023-05-03T02:14:47.101Z,1.50
2023-05-03T02:17:17.308Z,1.87
2023-05-03T02:19:45.443Z,1.77
2023-05-03T02:22:13.509Z,2.60
2023-05-03T02:24:41.588Z,2.30
2023-05-03T02:27:09.632Z,2.20
2023-05-03T02:29:37.772Z,2.00
2023-05-03T02:32:06.415Z,2.00
2023-05-03T02:34:36.339Z,1.83
2023-05-03T02:37:05.280Z,1.80
2023-05-03T02:39:33.383Z,2.03
2023-05-03T02:42:02.509Z,1.90
2023-05-03T02:44:32.425Z,2.10
2023-05-03T02:47:01.843Z,1.90
2023-05-03T02:49:29.903Z,2.20
2023-05-03T02:51:59.388Z,1.80
2023-05-03T02:54:27.450Z,1.97
2023-05-03T02:56:55.662Z,2.00
2023-05-03T02:59:23.770Z,1.80
2023-05-03T03:01:51.885Z,1.80
2023-05-03T03:04:19.983Z,1.50
2023-05-03T03:06:48.197Z,1.60
2023-05-03T03:09:17.728Z,1.80
2023-05-03T03:11:45.813Z,1.80
2023-05-03T03:14:13.876Z,2.50
2023-05-03T03:16:41.923Z,2.10
2023-05-03T03:19:10.041Z,2.13
2023-05-03T03:21:38.134Z,2.23
2023-05-03T03:24:06.790Z,2.27
2023-05-03T03:26:36.280Z,2.10
2023-05-03T03:29:04.422Z,2.63
2023-05-03T03:31:32.537Z,2.30
2023-05-03T03:34:00.610Z,2.30
2023-05-03T03:36:29.036Z,2.53
2023-05-03T03:38:57.101Z,2.13
2023-05-03T03:41:25.214Z,2.27
2023-05-03T03:43:54.623Z,1.97
2023-05-03T03:46:23.121Z,2.70
2023-05-03T03:48:51.223Z,2.40
2023-05-03T03:51:19.286Z,2.03
2023-05-03T03:53:47.362Z,2.13
2023-05-03T03:56:15.508Z,2.33
2023-05-03T03:58:43.589Z,2.10
2023-05-03T04:01:13.279Z,1.90
2023-05-03T04:03:41.495Z,2.60
2023-05-03T04:06:09.755Z,2.30
2023-05-03T04:08:37.854Z,2.37
2023-05-03T04:11:10.601Z,2.47
2023-05-03T04:13:38.669Z,3.00
2023-05-03T04:16:07.445Z,2.10
2023-05-03T04:18:37.023Z,2.97
2023-05-03T04:21:05.424Z,2.10
2023-05-03T04:23:33.492Z,3.10
2023-05-03T04:26:02.641Z,2.87
2023-05-03T04:28:32.993Z,2.40
2023-05-03T04:31:01.128Z,2.73
2023-05-03T04:33:30.163Z,2.80
2023-05-03T04:35:59.597Z,2.63
2023-05-03T04:38:28.185Z,3.20
2023-05-03T04:40:56.257Z,3.33
2023-05-03T04:43:24.291Z,3.00
2023-05-03T04:45:53.545Z,3.63
2023-05-03T04:48:21.650Z,3.23
2023-05-03T04:50:49.744Z,3.47
2023-05-03T04:53:19.205Z,4.10
2023-05-03T04:55:47.604Z,3.73
2023-05-03T04:58:15.701Z,4.27
2023-05-03T05:00:44.035Z,4.30
2023-05-03T05:03:12.232Z,5.13
2023-05-03T05:05:40.380Z,4.50
2023-05-03T05:08:08.482Z,3.70
2023-05-03T05:10:41.937Z,4.53
2023-05-03T05:13:10.089Z,4.43
2023-05-03T05:15:38.137Z,5.27
2023-05-03T05:18:06.379Z,4.87
2023-05-03T05:20:34.538Z,4.77
2023-05-03T05:23:02.730Z,5.13
2023-05-03T05:25:30.816Z,5.47
2023-05-03T05:28:00.236Z,6.23
2023-05-03T05:30:28.298Z,6.00
2023-05-03T05:32:56.463Z,5.13
2023-05-03T05:35:24.602Z,5.57
2023-05-03T05:37:52.642Z,6.20
2023-05-03T05:40:21.235Z,5.60
2023-05-03T05:42:50.165Z,5.40
2023-05-03T05:45:19.648Z,5.70
2023-05-03T05:47:47.792Z,6.10
2023-05-03T05:50:18.828Z,5.83
2023-05-03T05:52:47.246Z,6.20
2023-05-03T05:55:15.874Z,6.60
2023-05-03T05:57:44.047Z,6.60
2023-05-03T06:00:15.526Z,6.20
2023-05-03T06:02:45.712Z,6.47
2023-05-03T06:05:13.946Z,6.37
2023-05-03T06:07:42.104Z,6.63
2023-05-03T06:10:10.832Z,8.33
2023-05-03T06:12:38.929Z,6.30
2023-05-03T06:15:08.670Z,6.77
2023-05-03T06:17:36.853Z,6.80
2023-05-03T06:20:11.685Z,7.10
2023-05-03T06:22:39.801Z,6.93
2023-05-03T06:25:08.805Z,6.80
2023-05-03T06:27:37.075Z,7.87
2023-05-03T06:30:06.631Z,8.43
2023-05-03T06:32:34.826Z,8.23
2023-05-03T06:35:04.107Z,8.00
2023-05-03T06:37:33.562Z,8.23
2023-05-03T06:56:44.378Z,10.10
2023-05-03T06:59:12.416Z,8.23
2023-05-03T07:01:40.572Z,9.00
2023-05-03T07:04:08.909Z,10.10
2023-05-03T07:06:48.284Z,10.23
2023-05-03T07:09:35.437Z,8.70
2023-05-03T07:12:11.463Z,8.67
2023-05-03T07:14:40.019Z,8.03
2023-05-03T07:17:08.128Z,10.30
2023-05-03T07:19:37.247Z,9.50
2023-05-03T07:22:05.481Z,9.50
2023-05-03T07:24:33.627Z,9.93
2023-05-03T07:27:01.679Z,9.10
2023-05-03T07:29:31.132Z,8.73
2023-05-03T07:31:59.453Z,8.10
2023-05-03T07:34:27.542Z,9.10
2023-05-03T07:36:55.713Z,9.73
2023-05-03T07:39:23.772Z,8.60
2023-05-03T07:55:13.228Z,8.20
2023-05-03T07:57:41.298Z,9.10
2023-05-03T08:00:12.389Z,8.83
2023-05-03T08:02:40.643Z,8.70
2023-05-03T08:05:09.934Z,10.00
2023-05-03T08:07:38.128Z,8.93
2023-05-03T08:10:06.982Z,8.87
2023-05-03T08:12:37.325Z,9.27
2023-05-03T08:15:07.188Z,11.10
2023-05-03T08:17:41.848Z,9.63
2023-05-03T08:20:11.848Z,8.77
2023-05-03T08:22:41.370Z,8.23
2023-05-03T08:25:10.303Z,9.27
2023-05-03T08:27:40.184Z,9.60
2023-05-03T08:30:09.554Z,10.10
2023-05-03T08:32:37.703Z,9.30
2023-05-03T08:35:07.599Z,9.70
2023-05-03T08:37:42.686Z,9.20
2023-05-03T08:40:13.743Z,10.23
2023-05-03T08:58:43.962Z,9.70
2023-05-03T09:01:12.023Z,8.53
2023-05-03T09:03:40.139Z,9.17
2023-05-03T09:06:21.376Z,8.00
2023-05-03T09:08:50.156Z,8.10
2023-05-03T09:11:25.531Z,7.70
2023-05-03T09:13:55.413Z,8.83
2023-05-03T09:16:29.556Z,8.50
2023-05-03T09:18:59.378Z,8.37
2023-05-03T09:21:27.511Z,8.10
2023-05-03T09:23:55.765Z,9.47
2023-05-03T09:26:31.493Z,9.30
2023-05-03T09:29:02.484Z,9.50
2023-05-03T09:31:31.862Z,9.53
2023-05-03T09:34:00.466Z,8.83
2023-05-03T09:36:29.023Z,8.97
2023-05-03T09:38:57.082Z,9.00
2023-05-03T09:41:29.407Z,8.70
2023-05-03T09:44:02.744Z,9.07
2023-05-03T09:46:33.456Z,8.60
2023-05-03T09:49:01.847Z,8.60
2023-05-03T09:51:31.945Z,8.80
2023-05-03T09:54:00.421Z,10.00
2023-05-03T09:56:28.550Z,10.77
2023-05-03T09:58:56.819Z,10.70
2023-05-03T10:01:25.982Z,10.60
2023-05-03T10:04:00.771Z,10.60
2023-05-03T10:06:33.663Z,11.80
2023-05-03T10:09:06.494Z,10.30
2023-05-03T10:11:37.253Z,10.70
2023-05-03T10:14:06.821Z,11.23
2023-05-03T10:16:38.559Z,11.17
2023-05-03T10:19:14.753Z,11.27
2023-05-03T10:21:57.654Z,12.10
2023-05-03T10:24:25.809Z,11.63
2023-05-03T10:26:53.923Z,11.20
2023-05-03T10:29:51.455Z,8.70
2023-05-03T10:32:34.177Z,9.47
2023-05-03T10:35:06.183Z,9.90
2023-05-03T10:37:36.179Z,10.37
2023-05-03T10:40:11.474Z,9.90
2023-05-03T10:42:40.358Z,10.60
2023-05-03T10:45:12.122Z,10.70
2023-05-03T10:47:40.883Z,10.67
2023-05-03T10:50:29.326Z,10.53
2023-05-03T10:52:57.382Z,9.43
2023-05-03T10:55:28.259Z,10.03
2023-05-03T10:57:58.601Z,8.27
2023-05-03T11:00:34.776Z,7.40
2023-05-03T11:03:14.401Z,10.37
2023-05-03T11:05:43.884Z,9.23
2023-05-03T11:08:13.990Z,7.07
2023-05-03T11:10:42.343Z,8.47
2023-05-03T11:13:10.509Z,9.27
2023-05-03T11:15:38.851Z,8.63
2023-05-03T11:18:08.048Z,7.23
2023-05-03T11:20:37.105Z,7.70
2023-05-03T11:23:07.118Z,7.00
2023-05-03T11:25:35.650Z,7.30
2023-05-03T11:28:04.973Z,8.13
2023-05-03T11:30:35.451Z,8.50
2023-05-03T11:33:04.268Z,9.90
2023-05-03T11:35:33.105Z,8.27
2023-05-03T11:38:01.289Z,9.57
2023-05-03T11:40:31.545Z,8.50
2023-05-03T11:43:00.879Z,8.53
2023-05-03T11:45:32.671Z,7.60
2023-05-03T11:48:01.540Z,7.80
2023-05-03T11:50:45.594Z,7.07
2023-05-03T11:53:14.141Z,6.40
2023-05-03T11:55:46.384Z,6.00
2023-05-03T11:58:15.490Z,6.47
2023-05-03T12:00:46.431Z,5.70
2023-05-03T12:03:19.642Z,5.60
2023-05-03T12:05:49.770Z,5.77
2023-05-03T12:08:20.886Z,5.83
2023-05-03T12:10:53.595Z,5.33
2023-05-03T12:13:30.491Z,6.07
2023-05-03T12:16:10.950Z,6.13
2023-05-03T12:18:50.304Z,5.30
2023-05-03T12:23:51.672Z,4.40
2023-05-03T12:26:21.528Z,4.20
2023-05-03T12:28:50.642Z,4.30
2023-05-03T12:31:18.902Z,4.70
2023-05-03T12:34:07.492Z,5.20
2023-05-03T12:36:37.812Z,4.67
2023-05-03T12:39:10.234Z,5.23
2023-05-03T12:42:06.351Z,5.03
2023-05-03T12:44:29.043Z,4.63
2023-05-03T12:47:00.968Z,4.60
2023-05-03T12:49:29.571Z,4.80
2023-05-03T12:54:33.986Z,5.67
2023-05-03T12:57:08.969Z,4.97
2023-05-03T12:59:41.948Z,4.33
2023-05-03T13:04:57.113Z,4.93
2023-05-03T13:07:30.060Z,5.37
2023-05-03T13:12:33.483Z,4.30
2023-05-03T13:15:04.027Z,3.90
2023-05-03T13:17:32.942Z,3.53
2023-05-03T13:20:01.289Z,4.33
2023-05-03T13:22:29.464Z,3.30
2023-05-03T13:24:57.945Z,4.93
2023-05-03T13:27:26.527Z,4.20
2023-05-03T13:29:56.025Z,4.27
2023-05-03T13:32:24.385Z,4.73
2023-05-03T13:34:52.620Z,5.00
2023-05-03T13:37:20.778Z,5.53
2023-05-03T13:39:49.053Z,4.90
2023-05-03T13:42:17.227Z,4.80
2023-05-03T13:44:47.701Z,4.00
2023-05-03T13:47:17.238Z,4.80
2023-05-03T13:49:45.329Z,4.70
2023-05-03T13:52:13.544Z,4.37
2023-05-03T13:54:42.394Z,4.37
2023-05-03T13:57:10.521Z,3.43
2023-05-03T13:59:38.658Z,3.70
2023-05-03T14:02:06.875Z,3.83
2023-05-03T14:04:36.462Z,3.70
2023-05-03T14:07:04.660Z,4.30
2023-05-03T14:09:32.767Z,3.60
2023-05-03T14:12:01.199Z,4.30
2023-05-03T14:14:29.280Z,3.70
2023-05-03T14:16:57.455Z,3.50
2023-05-03T14:19:25.631Z,2.43
2023-05-03T14:21:59.675Z,3.03
2023-05-03T14:24:28.050Z,3.57
2023-05-03T14:26:56.110Z,2.70
2023-05-03T14:29:24.356Z,2.30
2023-05-03T14:31:52.523Z,2.37
2023-05-03T14:34:20.908Z,2.50
2023-05-03T14:36:49.092Z,2.53
2023-05-03T14:39:18.526Z,2.80
2023-05-03T14:41:48.026Z,2.90
2023-05-03T14:44:16.136Z,2.67
2023-05-03T14:46:44.268Z,3.07
2023-05-03T14:49:12.327Z,3.17
2023-05-03T14:51:52.087Z,2.80
2023-05-03T14:54:23.107Z,3.17
2023-05-03T14:56:51.394Z,2.63
2023-05-03T14:59:19.439Z,2.50
2023-05-03T15:01:47.514Z,3.20
2023-05-03T15:04:15.597Z,2.77
2023-05-03T15:06:43.743Z,2.80
2023-05-03T15:09:12.850Z,3.10
2023-05-03T15:11:42.513Z,2.67
2023-05-03T15:14:10.657Z,2.73
2023-05-03T15:16:38.830Z,3.00
2023-05-03T15:19:07.525Z,2.40
2023-05-03T15:21:47.551Z,3.00
2023-05-03T15:24:15.931Z,2.20
2023-05-03T15:26:46.830Z,4.30
2023-05-03T15:29:15.660Z,4.63
2023-05-03T15:31:44.051Z,4.70
2023-05-03T15:34:12.511Z,4.20
2023-05-03T15:36:40.846Z,5.10
2023-05-03T15:39:09.484Z,3.90
2023-05-03T15:41:37.653Z,4.43
2023-05-03T15:44:09.725Z,4.93
2023-05-03T15:46:39.040Z,4.47
2023-05-03T15:49:08.447Z,4.87
2023-05-03T15:51:36.982Z,4.50
2023-05-03T15:54:05.258Z,3.67
2023-05-03T15:56:33.653Z,3.17
2023-05-03T15:59:01.798Z,3.73
2023-05-03T16:01:31.317Z,3.67
2023-05-03T16:03:59.392Z,3.63
2023-05-03T16:06:28.339Z,3.17
2023-05-03T16:08:56.575Z,3.43
2023-05-03T16:11:24.724Z,2.83
2023-05-03T16:13:52.812Z,2.67
2023-05-03T16:16:21.167Z,2.70
2023-05-03T16:18:50.772Z,2.70
2023-05-03T16:21:18.840Z,3.17
2023-05-03T16:23:48.896Z,3.30
2023-05-03T16:26:19.302Z,3.43
2023-05-03T16:28:48.308Z,2.57
2023-05-03T16:31:18.190Z,2.60
2023-05-03T16:33:46.290Z,2.47
2023-05-03T16:36:15.738Z,2.70
2023-05-03T16:38:43.812Z,1.80
2023-05-03T16:41:11.874Z,2.60
2023-05-03T16:43:40.427Z,2.77
2023-05-03T16:46:08.790Z,2.57
2023-05-03T16:48:37.059Z,2.97
2023-05-03T16:51:05.606Z,3.57
2023-05-03T16:53:35.110Z,3.43
2023-05-03T16:56:03.408Z,3.37
2023-05-03T16:58:31.511Z,3.20
2023-05-03T17:00:59.610Z,2.43
2023-05-03T17:03:27.813Z,2.77
2023-05-03T17:05:56.158Z,3.10
2023-05-03T17:08:24.225Z,3.43
2023-05-03T17:10:54.445Z,2.93
2023-05-03T17:13:22.514Z,2.10
2023-05-03T17:15:50.558Z,2.90
2023-05-03T17:18:18.729Z,2.50
2023-05-03T17:20:46.823Z,2.67
2023-05-03T17:23:14.888Z,2.63
2023-05-03T17:25:44.400Z,2.70
2023-05-03T17:28:13.838Z,3.40
2023-05-03T17:30:41.977Z,2.90
2023-05-03T17:33:10.082Z,3.47
2023-05-03T17:35:38.152Z,2.90
2023-05-03T17:38:06.234Z,2.73
2023-05-03T17:40:35.053Z,3.30
2023-05-03T17:43:03.651Z,2.60
2023-05-03T17:45:33.155Z,3.20
2023-05-03T17:48:01.268Z,3.07
2023-05-03T17:50:29.397Z,2.77
2023-05-03T17:52:57.926Z,3.30
2023-05-03T17:55:26.117Z,2.60
2023-05-03T17:57:54.264Z,3.10
2023-05-03T18:00:23.088Z,2.30
2023-05-03T18:02:53.353Z,2.53
2023-05-03T18:05:21.643Z,2.80
2023-05-03T18:07:49.753Z,3.03
2023-05-03T18:10:18.034Z,3.50
2023-05-03T18:12:46.196Z,2.60
2023-05-03T18:15:15.660Z,3.40
2023-05-03T18:17:44.415Z,2.70
2023-05-03T18:20:14.746Z,3.40
2023-05-03T18:22:43.117Z,3.40
2023-05-03T18:25:11.169Z,3.20
2023-05-03T18:27:39.271Z,3.03
2023-05-03T18:30:09.130Z,3.73
2023-05-03T18:32:37.467Z,3.00
2023-05-03T18:35:06.105Z,4.20
2023-05-03T18:37:35.622Z,4.37
2023-05-03T18:40:04.723Z,3.83
2023-05-03T18:42:33.221Z,3.20
2023-05-03T18:45:01.275Z,3.93
2023-05-03T18:47:29.467Z,3.50
2023-05-03T18:49:57.611Z,3.60
2023-05-03T18:52:25.904Z,3.83
2023-05-03T18:54:55.363Z,3.90
2023-05-03T18:57:23.425Z,4.07
2023-05-03T19:00:00.024Z,4.53
2023-05-03T19:02:31.360Z,4.20
2023-05-03T19:05:00.885Z,3.87
2023-05-03T19:07:29.373Z,4.30
2023-05-03T19:09:58.899Z,3.67
2023-05-03T19:12:27.410Z,3.80
2023-05-03T19:14:55.532Z,4.10
2023-05-03T19:17:23.738Z,4.17
2023-05-03T19:19:51.860Z,4.60
2023-05-03T19:22:19.950Z,4.40
2023-05-03T19:24:48.098Z,4.60
2023-05-03T19:27:18.022Z,4.60
2023-05-03T19:29:46.184Z,4.30
2023-05-03T19:32:14.450Z,5.23
2023-05-03T19:34:42.917Z,4.87
2023-05-03T19:37:11.763Z,4.97
2023-05-03T19:39:39.843Z,5.60
2023-05-03T19:42:09.115Z,4.93
2023-05-03T19:44:38.605Z,5.80
2023-05-03T19:47:06.737Z,5.13
2023-05-03T19:49:34.836Z,6.43
2023-05-03T19:52:04.474Z,5.80
2023-05-03T19:54:33.205Z,6.37
2023-05-03T19:57:04.731Z,6.63
2023-05-03T19:59:32.826Z,6.77
2023-05-03T20:02:02.322Z,6.70
2023-05-03T20:04:30.514Z,6.40
2023-05-03T20:06:58.582Z,7.63
2023-05-03T20:09:26.660Z,6.27
2023-05-03T20:11:58.812Z,7.30
2023-05-03T20:14:27.926Z,6.40
2023-05-03T20:16:58.925Z,7.30
2023-05-03T20:19:28.471Z,7.63
2023-05-03T20:21:56.569Z,7.57
2023-05-03T20:24:24.632Z,7.97
2023-05-03T20:26:53.642Z,7.93
2023-05-03T20:29:21.709Z,8.97
2023-05-03T20:31:52.211Z,7.67
2023-05-03T20:34:20.331Z,8.50
2023-05-03T20:36:49.808Z,7.07
2023-05-03T20:39:17.886Z,8.00
2023-05-03T20:41:46.012Z,7.73
2023-05-03T20:44:14.091Z,7.00
2023-05-03T20:46:42.195Z,7.20
2023-05-03T20:49:10.700Z,8.10
2023-05-03T20:51:38.777Z,7.40
2023-05-03T20:54:08.256Z,7.93
2023-05-03T20:56:36.349Z,7.10
2023-05-03T20:59:04.496Z,8.47
2023-05-03T21:01:33.214Z,8.40
2023-05-03T21:04:02.911Z,6.00
2023-05-03T21:06:31.002Z,7.57
2023-05-03T21:08:59.376Z,6.60
2023-05-03T21:11:28.818Z,6.90
2023-05-03T21:13:57.247Z,7.67
2023-05-03T21:16:26.409Z,7.07
2023-05-03T21:18:54.611Z,6.80
2023-05-03T21:21:22.699Z,6.70
2023-05-03T21:23:50.848Z,7.23
2023-05-03T21:26:18.970Z,6.40
2023-05-03T21:28:48.390Z,7.20
2023-05-03T21:31:16.972Z,6.37
2023-05-03T21:33:45.299Z,6.80
2023-05-03T21:36:13.659Z,7.30
2023-05-03T21:38:41.979Z,6.90
2023-05-03T21:41:10.296Z,7.00
2023-05-03T21:43:38.595Z,7.63
2023-05-03T21:46:09.636Z,6.40
2023-05-03T21:48:38.266Z,6.27
2023-05-03T21:51:06.521Z,6.40
2023-05-03T21:53:35.513Z,6.80
2023-05-03T21:56:03.639Z,6.13
2023-05-03T21:58:31.698Z,6.90
2023-05-03T22:00:59.802Z,6.97
2023-05-03T22:03:29.357Z,7.30
2023-05-03T22:05:57.696Z,7.10
2023-05-03T22:08:25.912Z,7.27
2023-05-03T22:10:56.080Z,6.17
2023-05-03T22:13:24.227Z,7.27
2023-05-03T22:15:52.350Z,6.60
2023-05-03T22:18:20.454Z,8.40
2023-05-03T22:20:49.925Z,7.20
2023-05-03T22:23:18.007Z,7.90
2023-05-03T22:25:46.165Z,6.57
2023-05-03T22:28:14.240Z,7.00
2023-05-03T22:30:42.486Z,6.60
2023-05-03T22:33:11.063Z,7.10
2023-05-03T22:35:39.289Z,5.90
2023-05-03T22:38:08.706Z,6.80
2023-05-03T22:40:36.777Z,6.40
2023-05-03T22:43:04.967Z,6.43
2023-05-03T22:45:33.110Z,6.67
2023-05-03T22:48:01.478Z,6.53
2023-05-03T22:50:29.591Z,6.60
2023-05-03T22:52:57.686Z,5.90
2023-05-03T22:55:27.301Z,7.30
2023-05-03T22:57:55.348Z,7.07
2023-05-03T23:00:23.660Z,6.30
2023-05-03T23:02:51.801Z,7.13
2023-05-03T23:05:20.276Z,6.57
2023-05-03T23:07:48.720Z,6.47
2023-05-03T23:10:16.769Z,7.10
2023-05-03T23:12:46.279Z,6.73
2023-05-03T23:15:14.589Z,6.07
2023-05-03T23:17:43.050Z,7.00
2023-05-03T23:20:12.633Z,6.50
2023-05-03T23:22:42.241Z,6.93
2023-05-03T23:25:10.836Z,6.23
2023-05-03T23:27:39.028Z,6.50
2023-05-03T23:30:10.373Z,6.30
2023-05-03T23:32:39.250Z,6.13
2023-05-03T23:35:08.529Z,6.13
2023-05-03T23:37:37.333Z,5.90
2023-05-03T23:40:06.481Z,5.60
2023-05-03T23:42:34.628Z,6.20
2023-05-03T23:45:02.699Z,6.33
2023-05-03T23:47:32.179Z,6.80
2023-05-03T23:50:00.253Z,6.57
2023-05-03T23:52:28.422Z,6.00
2023-05-03T23:54:56.501Z,6.67
2023-05-03T23:57:24.562Z,6.33
2023-05-03T23:59:52.591Z,7.50
